Time;durP1;ratioP1;P1;durP2;ratioP2;P2;SDS_P1;SDS_P2;PMS_P1;PMS_P2;Temp;Humidity;BMP_temperature;BMP_pressure;BME280_temperature;BME280_humidity;BME280_pressure;Samples;Min_cycle;Max_cycle;Signal;HPM_P1;HPM_P2
2021/10/09 00:00:59;;;;;;;;;;;16.30;99.90;;;;;;5055478;28;866;-45
2021/10/09 00:03:25;;;;;;;;;;;16.30;99.90;;;;;;5055680;28;878;-45
2021/10/09 00:05:50;;;;;;;;;;;16.30;99.90;;;;;;5055885;28;797;-45
2021/10/09 00:08:17;;;;;;;;;;;16.30;99.90;;;;;;5055481;28;1043;-45
2021/10/09 00:10:46;;;;;;;;;;;16.30;99.90;;;;;;5061768;28;1079;-46
2021/10/09 00:13:12;;;;;;;;;;;16.20;99.90;;;;;;5071806;28;813;-46
2021/10/09 00:15:39;;;;;;;;;;;16.20;99.90;;;;;;5075650;28;1914;-46
2021/10/09 00:18:05;;;;;;;;;;;16.20;99.90;;;;;;5075538;28;875;-45
2021/10/09 00:20:31;;;;;;;;;;;16.20;99.90;;;;;;5041058;28;892;-45
2021/10/09 00:22:58;;;;;;;;;;;16.20;99.90;;;;;;5075510;28;869;-45
2021/10/09 00:25:24;;;;;;;;;;;16.20;99.90;;;;;;5075489;28;919;-46
2021/10/09 00:27:49;;;;;;;;;;;16.20;99.90;;;;;;5075423;28;936;-46
2021/10/09 00:30:15;;;;;;;;;;;16.20;99.90;;;;;;5040150;28;958;-46
2021/10/09 00:32:41;;;;;;;;;;;16.20;99.90;;;;;;5057035;28;1271;-45
2021/10/09 00:35:07;;;;;;;;;;;16.20;99.90;;;;;;5076362;28;1890;-46
2021/10/09 00:37:32;;;;;;;;;;;16.20;99.90;;;;;;5078764;28;1168;-46
2021/10/09 00:39:59;;;;;;;;;;;16.20;99.90;;;;;;5078995;28;853;-46
2021/10/09 00:42:25;;;;;;;;;;;16.10;99.90;;;;;;5082451;28;1311;-46
2021/10/09 00:44:51;;;;;;;;;;;16.10;99.90;;;;;;5085363;28;757;-45
2021/10/09 00:47:21;;;;;;;;;;;16.10;99.90;;;;;;5078932;28;907;-45
2021/10/09 00:49:47;;;;;;;;;;;16.10;99.90;;;;;;5078888;28;816;-45
2021/10/09 00:52:13;;;;;;;;;;;16.10;99.90;;;;;;5079074;28;778;-45
2021/10/09 00:54:47;;;;;;;;;;;16.10;99.90;;;;;;5078979;28;1901;-45
2021/10/09 00:57:13;;;;;;;;;;;16.10;99.90;;;;;;5063534;28;1521;-45
2021/10/09 00:59:40;;;;;;;;;;;16.10;99.90;;;;;;5064110;28;1192;-46
2021/10/09 01:02:06;;;;;;;;;;;16.10;99.90;;;;;;5078658;28;860;-46
2021/10/09 01:04:34;;;;;;;;;;;16.10;99.90;;;;;;5078623;28;828;-45
2021/10/09 01:07:01;;;;;;;;;;;16.10;99.90;;;;;;5044152;28;914;-45
2021/10/09 01:09:27;;;;;;;;;;;16.10;99.90;;;;;;5078541;28;881;-46
2021/10/09 01:11:54;;;;;;;;;;;16.10;99.90;;;;;;5078051;28;1296;-46
2021/10/09 01:14:22;;;;;;;;;;;16.10;99.90;;;;;;5060515;28;1957;-46
2021/10/09 01:16:48;;;;;;;;;;;16.10;99.90;;;;;;5078444;28;737;-46
2021/10/09 01:19:15;;;;;;;;;;;16.10;99.90;;;;;;5078440;28;895;-46
2021/10/09 01:21:43;;;;;;;;;;;16.00;99.90;;;;;;5076943;28;1028;-49
2021/10/09 01:24:09;;;;;;;;;;;16.10;99.90;;;;;;5078297;28;931;-50
2021/10/09 01:26:37;;;;;;;;;;;16.00;99.90;;;;;;5078089;28;800;-46
2021/10/09 01:29:04;;;;;;;;;;;16.00;99.90;;;;;;5078345;28;766;-49
2021/10/09 01:31:33;;;;;;;;;;;16.00;99.90;;;;;;5078150;28;933;-48
2021/10/09 01:33:59;;;;;;;;;;;16.00;99.90;;;;;;5078039;28;1894;-46
2021/10/09 01:36:37;;;;;;;;;;;16.00;99.90;;;;;;5078279;28;901;-49
2021/10/09 01:39:03;;;;;;;;;;;16.00;99.90;;;;;;5060476;28;844;-49
2021/10/09 01:41:29;;;;;;;;;;;16.00;99.90;;;;;;5060340;28;1462;-46
2021/10/09 01:43:54;;;;;;;;;;;16.00;99.90;;;;;;5078044;28;789;-45
2021/10/09 01:46:20;;;;;;;;;;;16.00;99.90;;;;;;5076659;28;909;-45
2021/10/09 01:48:47;;;;;;;;;;;16.00;99.90;;;;;;5077764;28;856;-45
2021/10/09 01:51:16;;;;;;;;;;;15.90;99.90;;;;;;5078081;28;795;-45
2021/10/09 01:53:43;;;;;;;;;;;16.00;99.90;;;;;;5077577;28;1905;-45
2021/10/09 01:56:10;;;;;;;;;;;15.90;99.90;;;;;;5077679;28;924;-49
2021/10/09 01:58:36;;;;;;;;;;;16.00;99.90;;;;;;5009672;28;859;-46
2021/10/09 02:01:03;;;;;;;;;;;15.90;99.90;;;;;;5077483;28;804;-46
2021/10/09 02:03:31;;;;;;;;;;;16.00;99.90;;;;;;5059916;28;1415;-46
2021/10/09 02:05:57;;;;;;;;;;;15.90;99.90;;;;;;5077739;28;932;-49
2021/10/09 02:08:24;;;;;;;;;;;15.90;99.90;;;;;;5077659;28;836;-49
2021/10/09 02:10:59;;;;;;;;;;;15.90;99.90;;;;;;5059038;28;1194;-48
2021/10/09 02:16:07;;;;;;;;;;;15.90;99.90;;;;;;5044994;28;901;-45
2021/10/09 02:26:47;;;;;;;;;;;15.90;99.90;;;;;;5077420;28;580;-45
2021/10/09 02:29:13;;;;;;;;;;;15.90;99.90;;;;;;5042225;28;956;-49
2021/10/09 02:31:39;;;;;;;;;;;15.80;99.90;;;;;;5076922;28;852;-49
2021/10/09 02:34:04;;;;;;;;;;;15.80;99.90;;;;;;5076812;28;1923;-46
2021/10/09 02:36:32;;;;;;;;;;;15.80;99.90;;;;;;5072420;28;904;-49
2021/10/09 02:38:57;;;;;;;;;;;15.80;99.90;;;;;;5076759;28;866;-49
2021/10/09 02:41:24;;;;;;;;;;;15.80;99.90;;;;;;5076988;28;818;-46
2021/10/09 02:43:50;;;;;;;;;;;15.80;99.90;;;;;;5076556;28;821;-50
2021/10/09 02:46:17;;;;;;;;;;;15.80;99.90;;;;;;5076825;28;793;-49
2021/10/09 02:48:42;;;;;;;;;;;15.80;99.90;;;;;;5076809;28;871;-49
2021/10/09 02:51:09;;;;;;;;;;;15.80;99.90;;;;;;5076589;28;871;-46
2021/10/09 02:53:36;;;;;;;;;;;15.80;99.90;;;;;;5076483;28;1894;-50
2021/10/09 02:56:01;;;;;;;;;;;15.70;99.90;;;;;;5076683;28;883;-45
2021/10/09 02:58:28;;;;;;;;;;;15.70;99.90;;;;;;5076360;28;737;-45
2021/10/09 03:00:54;;;;;;;;;;;15.70;99.90;;;;;;5076145;28;929;-45
2021/10/09 03:03:19;;;;;;;;;;;15.70;99.90;;;;;;5076276;28;771;-45
2021/10/09 03:05:46;;;;;;;;;;;15.70;99.90;;;;;;5041556;28;1031;-46
2021/10/09 03:08:12;;;;;;;;;;;15.70;99.90;;;;;;5041675;28;908;-46
2021/10/09 03:10:38;;;;;;;;;;;15.70;99.90;;;;;;5058237;28;1192;-46
2021/10/09 03:13:05;;;;;;;;;;;15.70;99.90;;;;;;5024962;28;1000;-49
2021/10/09 03:15:30;;;;;;;;;;;15.70;99.90;;;;;;5058328;28;1906;-49
2021/10/09 03:17:57;;;;;;;;;;;15.70;99.90;;;;;;5076201;28;819;-49
2021/10/09 03:20:24;;;;;;;;;;;15.70;99.90;;;;;;5058463;28;1358;-46
2021/10/09 03:22:50;;;;;;;;;;;15.70;99.90;;;;;;5076030;28;868;-45
2021/10/09 03:25:17;;;;;;;;;;;15.70;99.90;;;;;;5074608;28;978;-48
2021/10/09 03:27:43;;;;;;;;;;;15.70;99.90;;;;;;5075912;28;1139;-49
2021/10/09 03:30:09;;;;;;;;;;;15.70;99.90;;;;;;5058064;28;1178;-49
2021/10/09 03:32:35;;;;;;;;;;;15.70;99.90;;;;;;5076245;28;792;-46
2021/10/09 03:35:02;;;;;;;;;;;15.60;99.90;;;;;;5075811;28;1878;-45
2021/10/09 03:37:29;;;;;;;;;;;15.60;99.90;;;;;;5075922;28;878;-46
2021/10/09 03:39:56;;;;;;;;;;;15.60;99.90;;;;;;5040972;28;1258;-49
2021/10/09 03:42:32;;;;;;;;;;;15.60;99.90;;;;;;5076025;28;883;-48
2021/10/09 03:45:04;;;;;;;;;;;15.60;99.90;;;;;;5075791;28;777;-49
2021/10/09 03:52:59;;;;;;;;;;;15.60;99.90;;;;;;5061169;28;633;-49
2021/10/09 03:55:24;;;;;;;;;;;15.50;99.90;;;;;;5075685;28;1902;-49
2021/10/09 03:57:51;;;;;;;;;;;15.50;99.90;;;;;;5075719;28;755;-46
2021/10/09 04:00:19;;;;;;;;;;;15.50;99.90;;;;;;5075391;28;843;-50
2021/10/09 04:02:45;;;;;;;;;;;15.50;99.90;;;;;;5075888;28;957;-46
2021/10/09 04:05:11;;;;;;;;;;;15.50;99.90;;;;;;5076091;28;868;-46
2021/10/09 04:07:41;;;;;;;;;;;15.50;99.90;;;;;;5057998;28;1485;-46
2021/10/09 04:10:07;;;;;;;;;;;15.50;99.90;;;;;;5074410;28;870;-48
2021/10/09 04:12:33;;;;;;;;;;;15.50;99.90;;;;;;5079276;28;1194;-49
2021/10/09 04:14:59;;;;;;;;;;;15.50;99.90;;;;;;5079277;28;1902;-48
2021/10/09 04:17:29;;;;;;;;;;;15.50;99.90;;;;;;5077047;28;841;-49
2021/10/09 04:19:56;;;;;;;;;;;15.50;99.90;;;;;;5079626;28;1166;-46
2021/10/09 04:22:23;;;;;;;;;;;15.50;99.90;;;;;;5076958;28;817;-46
2021/10/09 04:24:49;;;;;;;;;;;15.50;99.90;;;;;;5079132;28;919;-45
2021/10/09 04:27:15;;;;;;;;;;;15.50;99.90;;;;;;5079547;28;765;-45
2021/10/09 04:29:42;;;;;;;;;;;15.50;99.90;;;;;;5079274;28;975;-46
2021/10/09 04:32:09;;;;;;;;;;;15.50;99.90;;;;;;5079315;28;825;-46
2021/10/09 04:34:37;;;;;;;;;;;15.50;99.90;;;;;;5079143;28;1905;-46
2021/10/09 04:37:03;;;;;;;;;;;15.50;99.90;;;;;;5078649;28;1143;-45
2021/10/09 04:39:29;;;;;;;;;;;15.40;99.90;;;;;;5079373;28;859;-48
2021/10/09 04:41:56;;;;;;;;;;;15.40;99.90;;;;;;5078951;28;956;-45
2021/10/09 04:44:22;;;;;;;;;;;15.40;99.90;;;;;;5037299;28;1427;-45
2021/10/09 04:46:50;;;;;;;;;;;15.40;99.90;;;;;;5020655;28;979;-48
2021/10/09 04:49:16;;;;;;;;;;;15.40;99.90;;;;;;5020911;28;864;-46
2021/10/09 04:51:42;;;;;;;;;;;15.40;99.90;;;;;;5020735;28;1018;-48
2021/10/09 04:54:08;;;;;;;;;;;15.40;99.90;;;;;;5037223;28;1894;-48
2021/10/09 04:56:36;;;;;;;;;;;15.40;99.90;;;;;;5037257;28;955;-45
2021/10/09 04:59:03;;;;;;;;;;;15.40;99.90;;;;;;5037076;28;1055;-45
2021/10/09 05:01:29;;;;;;;;;;;15.40;99.90;;;;;;5037036;28;875;-45
2021/10/09 05:03:57;;;;;;;;;;;15.40;99.90;;;;;;5037121;28;890;-48
2021/10/09 05:06:25;;;;;;;;;;;15.40;99.90;;;;;;5037054;28;915;-49
2021/10/09 05:08:50;;;;;;;;;;;15.40;99.90;;;;;;5036709;28;825;-49
2021/10/09 05:11:18;;;;;;;;;;;15.40;99.90;;;;;;5036807;28;1216;-46
2021/10/09 05:13:45;;;;;;;;;;;15.40;99.90;;;;;;5036825;28;1959;-48
2021/10/09 05:16:11;;;;;;;;;;;15.40;99.90;;;;;;5036560;28;976;-50
2021/10/09 05:18:37;;;;;;;;;;;15.30;99.90;;;;;;5036817;28;866;-49
2021/10/09 05:21:03;;;;;;;;;;;15.30;99.90;;;;;;5036556;28;1033;-49
2021/10/09 05:23:32;;;;;;;;;;;15.30;99.90;;;;;;5036929;28;840;-49
2021/10/09 05:25:58;;;;;;;;;;;15.30;99.90;;;;;;5036651;28;830;-49
2021/10/09 05:28:35;;;;;;;;;;;15.30;99.90;;;;;;5036669;28;873;-49
2021/10/09 05:31:03;;;;;;;;;;;15.30;99.90;;;;;;5036281;28;813;-49
2021/10/09 05:35:58;;;;;;;;;;;15.30;99.90;;;;;;5078093;28;1897;-48
2021/10/09 05:38:24;;;;;;;;;;;15.30;99.90;;;;;;5043510;28;923;-49
2021/10/09 05:40:51;;;;;;;;;;;15.30;99.90;;;;;;5078271;28;803;-46
2021/10/09 05:43:18;;;;;;;;;;;15.30;99.90;;;;;;5078212;28;831;-45
2021/10/09 05:45:45;;;;;;;;;;;15.30;99.90;;;;;;5060559;28;800;-48
2021/10/09 05:48:15;;;;;;;;;;;15.20;99.90;;;;;;5077931;28;756;-49
2021/10/09 05:50:57;;;;;;;;;;;15.20;99.90;;;;;;5078198;28;841;-45
2021/10/09 06:00:03;;;;;;;;;;;15.20;99.90;;;;;;4994962;28;1048;-48
2021/10/09 06:44:02;;;;;;;;;;;15.30;99.90;;;;;;4973499;28;1451;-45
2021/10/09 07:00:17;;;;;;;;;;;15.60;99.90;;;;;;4918530;29;1141;-49
2021/10/09 07:02:52;;;;;;;;;;;15.80;99.90;;;;;;4918746;29;1007;-49
2021/10/09 07:05:20;;;;;;;;;;;16.00;99.90;;;;;;4919416;29;1219;-49
2021/10/09 07:08:04;;;;;;;;;;;16.20;99.90;;;;;;4937484;29;951;-47
2021/10/09 07:10:30;;;;;;;;;;;16.50;99.90;;;;;;4937537;29;1037;-49
2021/10/09 07:12:57;;;;;;;;;;;17.10;99.90;;;;;;4958303;28;1390;-44
2021/10/09 07:15:24;;;;;;;;;;;17.50;99.90;;;;;;4975503;28;1910;-48
2021/10/09 07:17:52;;;;;;;;;;;17.60;99.90;;;;;;4959783;28;941;-48
2021/10/09 07:20:19;;;;;;;;;;;17.40;99.90;;;;;;4975794;28;807;-48
2021/10/09 07:22:48;;;;;;;;;;;17.00;99.90;;;;;;4975859;28;979;-48
2021/10/09 07:25:14;;;;;;;;;;;17.10;99.90;;;;;;4959477;28;861;-44
2021/10/09 07:27:42;;;;;;;;;;;16.70;99.90;;;;;;4975683;28;1240;-44
2021/10/09 07:30:08;;;;;;;;;;;16.40;99.90;;;;;;5053465;28;973;-44
2021/10/09 07:32:34;;;;;;;;;;;16.30;99.90;;;;;;5055109;28;1403;-48
2021/10/09 07:35:01;;;;;;;;;;;16.20;99.90;;;;;;5054827;28;1898;-45
2021/10/09 07:37:26;;;;;;;;;;;16.10;99.90;;;;;;5016527;28;1309;-44
2021/10/09 07:39:51;;;;;;;;;;;16.10;99.90;;;;;;5055940;28;1535;-48
2021/10/09 07:42:17;;;;;;;;;;;16.10;99.90;;;;;;5055064;28;1205;-45
2021/10/09 07:44:44;;;;;;;;;;;16.10;99.90;;;;;;5053860;28;1110;-44
2021/10/09 07:47:13;;;;;;;;;;;16.20;99.90;;;;;;5054481;28;1541;-48
2021/10/09 07:49:41;;;;;;;;;;;16.20;99.90;;;;;;5037738;28;1321;-48
2021/10/09 07:55:14;;;;;;;;;;;16.20;99.90;;;;;;5076380;22;1963;-45
2021/10/09 07:57:40;;;;;;;;;;;16.50;99.90;;;;;;5075246;28;1151;-48
2021/10/09 08:00:07;;;;;;;;;;;17.00;99.90;;;;;;5076197;28;1075;-48
2021/10/09 08:02:35;;;;;;;;;;;17.20;99.90;;;;;;5046561;22;1713;-45
2021/10/09 08:05:00;;;;;;;;;;;17.30;99.90;;;;;;5038165;28;796;-45
2021/10/09 08:07:29;;;;;;;;;;;17.40;99.90;;;;;;5036386;28;760;-45
2021/10/09 08:09:55;;;;;;;;;;;17.30;99.90;;;;;;5035808;28;882;-45
2021/10/09 08:12:22;;;;;;;;;;;17.20;99.90;;;;;;5036433;28;781;-45
2021/10/09 08:14:49;;;;;;;;;;;17.20;99.90;;;;;;5036318;28;1898;-45
2021/10/09 08:17:16;;;;;;;;;;;17.30;99.90;;;;;;5037594;28;1178;-45
2021/10/09 08:19:42;;;;;;;;;;;17.30;99.90;;;;;;5036100;28;1317;-46
2021/10/09 08:22:10;;;;;;;;;;;17.30;99.90;;;;;;5036261;28;1123;-46
2021/10/09 08:24:49;;;;;;;;;;;16.80;99.90;;;;;;5034400;28;906;-49
2021/10/09 08:27:44;;;;;;;;;;;16.50;99.90;;;;;;5035991;28;1051;-49
2021/10/09 08:35:49;;;;;;;;;;;16.80;99.90;;;;;;5050186;28;1898;-45
2021/10/09 08:40:59;;;;;;;;;;;17.30;99.90;;;;;;5035894;28;1195;-45
2021/10/09 08:43:25;;;;;;;;;;;17.50;99.90;;;;;;5035587;28;1319;-45
2021/10/09 08:45:52;;;;;;;;;;;17.60;99.90;;;;;;5035941;28;804;-45
2021/10/09 08:48:18;;;;;;;;;;;17.70;99.90;;;;;;5001993;28;919;-45
2021/10/09 08:50:45;;;;;;;;;;;17.80;99.90;;;;;;5036180;28;1091;-45
2021/10/09 08:53:12;;;;;;;;;;;17.90;99.90;;;;;;5036401;28;850;-46
2021/10/09 08:55:39;;;;;;;;;;;18.00;99.90;;;;;;5036613;28;1894;-49
2021/10/09 08:58:13;;;;;;;;;;;18.10;99.90;;;;;;5039837;28;820;-49
2021/10/09 09:03:53;;;;;;;;;;;18.30;99.90;;;;;;5039706;28;619;-49
2021/10/09 09:34:38;;;;;;;;;;;18.00;99.90;;;;;;5038504;28;1963;-49
2021/10/09 09:39:41;;;;;;;;;;;18.00;99.90;;;;;;5039367;28;784;-49
2021/10/09 09:42:07;;;;;;;;;;;18.00;99.90;;;;;;5037780;28;1375;-49
2021/10/09 09:44:34;;;;;;;;;;;18.00;99.90;;;;;;5023287;28;1624;-49
2021/10/09 09:47:01;;;;;;;;;;;18.10;99.90;;;;;;5042951;28;1498;-46
2021/10/09 09:49:30;;;;;;;;;;;18.20;99.90;;;;;;5043658;28;1392;-45
2021/10/09 09:51:57;;;;;;;;;;;18.20;99.90;;;;;;5043782;28;1411;-45
2021/10/09 09:54:29;;;;;;;;;;;18.30;99.90;;;;;;5056050;28;1969;-45
2021/10/09 09:57:00;;;;;;;;;;;18.30;99.90;;;;;;5056012;28;1338;-49
2021/10/09 09:59:35;;;;;;;;;;;18.30;99.90;;;;;;5056867;28;1041;-43
2021/10/09 10:02:05;;;;;;;;;;;18.40;99.90;;;;;;5028113;28;1528;-43
2021/10/09 10:04:34;;;;;;;;;;;18.50;99.90;;;;;;5039107;28;812;-44
2021/10/09 10:07:00;;;;;;;;;;;18.50;99.90;;;;;;5037622;28;777;-44
2021/10/09 10:09:30;;;;;;;;;;;18.60;99.90;;;;;;5054789;28;1043;-43
2021/10/09 10:12:01;;;;;;;;;;;18.60;99.90;;;;;;5037098;28;849;-43
2021/10/09 10:14:29;;;;;;;;;;;18.60;99.90;;;;;;5038088;28;1972;-43
2021/10/09 10:16:57;;;;;;;;;;;18.60;99.90;;;;;;5037392;28;879;-44
2021/10/09 10:19:41;;;;;;;;;;;18.70;99.90;;;;;;5037997;28;825;-44
2021/10/09 10:22:08;;;;;;;;;;;18.60;99.90;;;;;;5034052;28;809;-51
2021/10/09 10:24:45;;;;;;;;;;;18.70;99.90;;;;;;5036909;28;813;-44
2021/10/09 10:27:32;;;;;;;;;;;18.70;99.90;;;;;;5011756;28;1438;-44
2021/10/09 10:30:18;;;;;;;;;;;18.80;99.90;;;;;;5033259;28;1472;-43
2021/10/09 10:32:55;;;;;;;;;;;18.90;99.90;;;;;;5030942;28;1227;-44
2021/10/09 10:35:30;;;;;;;;;;;18.90;99.90;;;;;;5038522;28;1906;-44
2021/10/09 10:38:16;;;;;;;;;;;18.90;99.90;;;;;;5045666;28;1191;-43
2021/10/09 10:40:44;;;;;;;;;;;18.90;99.90;;;;;;5052318;28;1018;-44
2021/10/09 10:43:41;;;;;;;;;;;19.00;99.90;;;;;;5055755;28;1082;-44
2021/10/09 10:46:23;;;;;;;;;;;19.00;99.90;;;;;;5045462;28;1312;-44
2021/10/09 10:49:07;;;;;;;;;;;19.20;99.90;;;;;;5020519;28;1025;-44
2021/10/09 10:51:33;;;;;;;;;;;19.20;99.90;;;;;;5038652;28;1575;-45
2021/10/09 10:57:02;;;;;;;;;;;19.20;99.90;;;;;;5036973;28;739;-45
2021/10/09 10:59:32;;;;;;;;;;;19.20;99.90;;;;;;5042942;28;1596;-44
2021/10/09 11:02:11;;;;;;;;;;;19.20;99.90;;;;;;5042728;28;1102;-45
2021/10/09 11:04:40;;;;;;;;;;;19.30;99.90;;;;;;5037044;28;862;-44
2021/10/09 11:07:06;;;;;;;;;;;19.30;99.90;;;;;;5032093;28;921;-56
2021/10/09 11:09:34;;;;;;;;;;;19.30;99.90;;;;;;5049575;28;1791;-45
2021/10/09 11:12:00;;;;;;;;;;;19.40;99.90;;;;;;5031010;28;878;-44
2021/10/09 11:14:27;;;;;;;;;;;19.40;99.90;;;;;;5054681;28;1917;-44
2021/10/09 11:17:03;;;;;;;;;;;19.40;99.90;;;;;;5055188;28;871;-44
2021/10/09 11:19:47;;;;;;;;;;;19.40;99.90;;;;;;5033238;28;1036;-44
2021/10/09 11:22:19;;;;;;;;;;;19.50;99.90;;;;;;5034114;28;758;-44
2021/10/09 11:24:46;;;;;;;;;;;19.50;99.90;;;;;;5036245;28;729;-44
2021/10/09 11:27:12;;;;;;;;;;;19.50;99.90;;;;;;5036747;28;807;-44
2021/10/09 11:29:38;;;;;;;;;;;19.50;99.90;;;;;;5036618;28;1102;-44
2021/10/09 11:32:09;;;;;;;;;;;19.50;99.90;;;;;;5035647;28;833;-44
2021/10/09 11:34:57;;;;;;;;;;;19.50;99.90;;;;;;5036042;28;1959;-43
2021/10/09 11:37:23;;;;;;;;;;;19.50;99.90;;;;;;5003923;28;981;-50
2021/10/09 11:39:51;;;;;;;;;;;19.50;99.90;;;;;;5032828;28;1429;-51
2021/10/09 11:42:21;;;;;;;;;;;19.60;99.90;;;;;;5035709;28;746;-51
2021/10/09 11:45:10;;;;;;;;;;;19.60;99.90;;;;;;5035724;28;829;-51
2021/10/09 11:53:45;;;;;;;;;;;19.50;99.90;;;;;;5037017;28;758;-51
2021/10/09 11:56:12;;;;;;;;;;;19.50;99.90;;;;;;5036636;28;1970;-50
2021/10/09 11:58:48;;;;;;;;;;;19.50;99.90;;;;;;5036629;28;832;-51
2021/10/09 12:01:26;;;;;;;;;;;19.60;99.90;;;;;;5036053;28;1038;-51
2021/10/09 12:03:51;;;;;;;;;;;19.50;99.90;;;;;;5035618;28;853;-50
2021/10/09 12:06:17;;;;;;;;;;;19.60;99.90;;;;;;5036690;28;794;-51
2021/10/09 12:08:52;;;;;;;;;;;19.60;99.90;;;;;;5036497;28;849;-51
2021/10/09 12:11:24;;;;;;;;;;;19.60;99.90;;;;;;5035536;28;853;-50
2021/10/09 12:13:51;;;;;;;;;;;19.60;99.90;;;;;;5036449;28;825;-50
2021/10/09 12:16:22;;;;;;;;;;;19.60;99.90;;;;;;5036094;28;1902;-51
2021/10/09 12:18:54;;;;;;;;;;;19.60;99.90;;;;;;5036663;28;842;-50
2021/10/09 12:21:21;;;;;;;;;;;19.50;99.90;;;;;;5054773;28;808;-50
2021/10/09 12:23:46;;;;;;;;;;;19.50;99.90;;;;;;5054701;28;753;-50
2021/10/09 12:26:13;;;;;;;;;;;19.50;99.90;;;;;;5054496;28;853;-51
2021/10/09 12:28:57;;;;;;;;;;;19.50;99.90;;;;;;5054544;28;774;-50
2021/10/09 12:31:26;;;;;;;;;;;19.50;99.90;;;;;;5048030;28;884;-51
2021/10/09 12:33:51;;;;;;;;;;;19.50;99.90;;;;;;5040211;28;785;-50
2021/10/09 12:39:27;;;;;;;;;;;19.40;99.90;;;;;;5040160;28;813;-51
2021/10/09 12:41:53;;;;;;;;;;;19.40;99.90;;;;;;5040470;28;1132;-50
2021/10/09 12:44:19;;;;;;;;;;;19.30;99.90;;;;;;5058287;28;773;-52
2021/10/09 12:46:45;;;;;;;;;;;19.30;99.90;;;;;;5057990;28;735;-50
2021/10/09 12:49:11;;;;;;;;;;;19.20;99.90;;;;;;5058199;28;753;-50
2021/10/09 12:51:38;;;;;;;;;;;19.20;99.90;;;;;;5058377;28;744;-50
2021/10/09 12:54:08;;;;;;;;;;;19.10;99.90;;;;;;5033591;28;1906;-50
2021/10/09 12:56:36;;;;;;;;;;;19.10;99.90;;;;;;5039802;28;925;-50
2021/10/09 12:59:04;;;;;;;;;;;19.00;99.90;;;;;;5039131;28;845;-50
2021/10/09 13:01:30;;;;;;;;;;;18.90;99.90;;;;;;5038414;28;1183;-50
2021/10/09 13:03:56;;;;;;;;;;;18.90;99.90;;;;;;5039445;28;856;-51
2021/10/09 13:06:21;;;;;;;;;;;18.90;99.90;;;;;;5033098;28;947;-50
2021/10/09 13:08:47;;;;;;;;;;;18.80;99.90;;;;;;5039249;28;910;-50
2021/10/09 13:11:12;;;;;;;;;;;18.80;99.90;;;;;;5057547;28;771;-50
2021/10/09 13:13:39;;;;;;;;;;;18.80;99.90;;;;;;5057970;28;766;-50
2021/10/09 13:16:07;;;;;;;;;;;18.70;99.90;;;;;;5057388;28;1902;-50
2021/10/09 13:18:34;;;;;;;;;;;18.70;99.90;;;;;;5057820;28;842;-50
2021/10/09 13:20:59;;;;;;;;;;;18.70;99.90;;;;;;5057627;28;864;-50
2021/10/09 13:23:31;;;;;;;;;;;18.60;99.90;;;;;;5057600;28;823;-50
2021/10/09 13:25:57;;;;;;;;;;;18.60;99.90;;;;;;5057586;28;789;-50
2021/10/09 13:28:22;;;;;;;;;;;18.60;99.90;;;;;;5057454;28;789;-50
2021/10/09 13:30:50;;;;;;;;;;;18.60;99.90;;;;;;5053857;28;967;-50
2021/10/09 13:33:16;;;;;;;;;;;18.50;99.90;;;;;;5038963;28;875;-50
2021/10/09 13:35:43;;;;;;;;;;;18.50;99.90;;;;;;5039277;28;1898;-50
2021/10/09 13:38:11;;;;;;;;;;;18.50;99.90;;;;;;5038949;28;850;-50
2021/10/09 13:40:39;;;;;;;;;;;18.50;99.90;;;;;;5038893;28;813;-50
2021/10/09 13:43:15;;;;;;;;;;;18.40;99.90;;;;;;5038822;28;967;-50
2021/10/09 13:45:43;;;;;;;;;;;18.40;99.90;;;;;;5038931;28;831;-50
2021/10/09 13:48:10;;;;;;;;;;;18.40;99.90;;;;;;5042322;28;1339;-50
2021/10/09 13:50:49;;;;;;;;;;;18.40;99.90;;;;;;5037278;28;822;-50
2021/10/09 13:53:14;;;;;;;;;;;18.40;99.90;;;;;;5038729;28;1558;-50
2021/10/09 13:55:42;;;;;;;;;;;18.30;99.90;;;;;;5038854;28;1930;-50
2021/10/09 13:58:10;;;;;;;;;;;18.30;99.90;;;;;;5038665;28;820;-50
2021/10/09 14:00:36;;;;;;;;;;;18.30;99.90;;;;;;5020366;28;1075;-50
2021/10/09 14:03:02;;;;;;;;;;;18.30;99.90;;;;;;5038084;28;1121;-50
2021/10/09 14:05:29;;;;;;;;;;;18.20;99.90;;;;;;5038492;28;827;-50
2021/10/09 14:07:54;;;;;;;;;;;18.20;99.90;;;;;;5038384;28;788;-50
2021/10/09 14:10:21;;;;;;;;;;;18.20;99.90;;;;;;5038356;28;785;-50
2021/10/09 14:12:48;;;;;;;;;;;18.20;99.90;;;;;;5038616;28;901;-50
2021/10/09 14:15:15;;;;;;;;;;;18.20;99.90;;;;;;5038280;28;1973;-50
2021/10/09 14:17:40;;;;;;;;;;;18.20;99.90;;;;;;5038082;28;1552;-50
2021/10/09 14:20:07;;;;;;;;;;;18.20;99.90;;;;;;5038149;28;824;-50
2021/10/09 14:22:32;;;;;;;;;;;18.10;99.90;;;;;;5038147;28;796;-50
2021/10/09 14:24:58;;;;;;;;;;;18.10;99.90;;;;;;5038098;28;758;-50
2021/10/09 14:27:27;;;;;;;;;;;18.10;99.90;;;;;;5038174;28;781;-50
2021/10/09 14:29:55;;;;;;;;;;;18.10;99.90;;;;;;5038156;28;858;-51
2021/10/09 14:32:20;;;;;;;;;;;18.10;99.90;;;;;;5036976;28;896;-43
2021/10/09 14:34:46;;;;;;;;;;;18.10;99.90;;;;;;5037948;28;1954;-43
2021/10/09 14:37:11;;;;;;;;;;;18.00;99.90;;;;;;5037883;28;798;-43
2021/10/09 14:39:37;;;;;;;;;;;18.00;99.90;;;;;;5038152;28;770;-43
2021/10/09 14:42:04;;;;;;;;;;;18.00;99.90;;;;;;5043959;28;797;-43
2021/10/09 14:44:31;;;;;;;;;;;18.00;99.90;;;;;;5033930;28;1342;-43
2021/10/09 14:47:32;;;;;;;;;;;18.00;99.90;;;;;;5041290;28;1146;-43
2021/10/09 14:49:58;;;;;;;;;;;18.00;99.90;;;;;;5037295;28;1353;-43
2021/10/09 15:19:10;;;;;;;;;;;17.90;99.90;;;;;;5052354;28;851;-43
2021/10/09 15:21:35;;;;;;;;;;;17.90;99.90;;;;;;5055399;28;805;-43
2021/10/09 15:24:01;;;;;;;;;;;17.90;99.90;;;;;;5041443;28;1030;-43
2021/10/09 15:26:27;;;;;;;;;;;17.90;99.90;;;;;;5036579;28;1154;-43
2021/10/09 15:28:54;;;;;;;;;;;17.90;99.90;;;;;;5037061;28;840;-43
2021/10/09 15:31:20;;;;;;;;;;;17.90;99.90;;;;;;5036589;28;918;-43
2021/10/09 15:33:45;;;;;;;;;;;17.80;99.90;;;;;;5035697;28;1181;-43
2021/10/09 15:36:11;;;;;;;;;;;17.80;99.90;;;;;;5034935;28;1906;-43
2021/10/09 15:38:52;;;;;;;;;;;17.80;99.90;;;;;;5037252;28;1304;-44
2021/10/09 15:41:17;;;;;;;;;;;17.80;99.90;;;;;;5041002;28;1086;-44
2021/10/09 15:43:44;;;;;;;;;;;17.80;99.90;;;;;;5036472;28;1333;-43
2021/10/09 15:46:13;;;;;;;;;;;17.80;99.90;;;;;;5018546;28;1536;-44
2021/10/09 15:48:38;;;;;;;;;;;17.90;99.90;;;;;;5038819;28;1392;-43
2021/10/09 15:51:04;;;;;;;;;;;17.90;99.90;;;;;;5044490;28;1146;-50
2021/10/09 15:53:29;;;;;;;;;;;17.90;99.90;;;;;;5055229;28;773;-50
2021/10/09 15:55:56;;;;;;;;;;;17.90;99.90;;;;;;5054906;28;1902;-50
2021/10/09 15:58:23;;;;;;;;;;;17.90;99.90;;;;;;5054991;28;987;-50
2021/10/09 16:00:50;;;;;;;;;;;17.90;99.90;;;;;;5051759;28;1040;-50
2021/10/09 16:03:15;;;;;;;;;;;17.90;99.90;;;;;;5036475;28;731;-51
2021/10/09 16:05:41;;;;;;;;;;;17.80;99.90;;;;;;5036949;28;833;-50
2021/10/09 16:08:07;;;;;;;;;;;17.80;99.90;;;;;;5040563;28;1011;-50
2021/10/09 16:10:33;;;;;;;;;;;17.80;99.90;;;;;;5040192;28;1150;-52
2021/10/09 16:13:00;;;;;;;;;;;17.80;99.90;;;;;;5048784;28;1248;-50
2021/10/09 16:15:29;;;;;;;;;;;17.80;99.90;;;;;;5058832;28;1905;-50
2021/10/09 16:17:56;;;;;;;;;;;17.80;99.90;;;;;;5055723;28;1069;-51
2021/10/09 16:20:22;;;;;;;;;;;17.80;99.90;;;;;;5058803;28;1031;-50
2021/10/09 16:22:48;;;;;;;;;;;17.80;99.90;;;;;;5039551;28;1039;-50
2021/10/09 16:25:13;;;;;;;;;;;17.80;99.90;;;;;;5039256;28;797;-50
2021/10/09 16:27:39;;;;;;;;;;;17.80;99.90;;;;;;5040273;28;794;-50
2021/10/09 16:30:05;;;;;;;;;;;17.70;99.90;;;;;;5040357;28;797;-50
2021/10/09 16:32:30;;;;;;;;;;;17.70;99.90;;;;;;5039808;28;818;-50
2021/10/09 16:34:57;;;;;;;;;;;17.70;99.90;;;;;;5040081;28;1957;-50
2021/10/09 16:37:24;;;;;;;;;;;17.70;99.90;;;;;;5058398;28;924;-50
2021/10/09 16:39:49;;;;;;;;;;;17.60;99.90;;;;;;5058401;28;822;-50
2021/10/09 16:42:15;;;;;;;;;;;17.60;99.90;;;;;;5058309;28;1626;-50
2021/10/09 16:44:40;;;;;;;;;;;17.60;99.90;;;;;;5058606;28;883;-50
2021/10/09 16:47:06;;;;;;;;;;;17.60;99.90;;;;;;5058295;28;796;-50
2021/10/09 16:49:33;;;;;;;;;;;17.60;99.90;;;;;;5043535;28;1127;-50
2021/10/09 16:52:00;;;;;;;;;;;17.60;99.90;;;;;;5040036;28;785;-50
2021/10/09 16:54:27;;;;;;;;;;;17.50;99.90;;;;;;5039845;28;1890;-50
2021/10/09 16:56:53;;;;;;;;;;;17.50;99.90;;;;;;5039814;28;864;-50
2021/10/09 16:59:19;;;;;;;;;;;17.50;99.90;;;;;;5039775;28;911;-51
2021/10/09 17:01:44;;;;;;;;;;;17.50;99.90;;;;;;5039271;28;1092;-50
2021/10/09 17:04:10;;;;;;;;;;;17.50;99.90;;;;;;5039583;28;883;-50
2021/10/09 17:06:35;;;;;;;;;;;17.40;99.90;;;;;;5039647;28;955;-50
2021/10/09 17:09:02;;;;;;;;;;;17.50;99.90;;;;;;5039587;28;817;-50
2021/10/09 17:11:29;;;;;;;;;;;17.40;99.90;;;;;;5039863;28;853;-50
2021/10/09 17:13:57;;;;;;;;;;;17.40;99.90;;;;;;5039599;28;765;-50
2021/10/09 17:16:26;;;;;;;;;;;17.40;99.90;;;;;;5039175;28;1964;-51
2021/10/09 17:19:03;;;;;;;;;;;17.40;99.90;;;;;;5038643;28;838;-50
2021/10/09 17:21:31;;;;;;;;;;;17.40;99.90;;;;;;5039309;28;864;-50
2021/10/09 17:23:58;;;;;;;;;;;17.40;99.90;;;;;;5038380;28;1509;-51
2021/10/09 17:26:24;;;;;;;;;;;17.40;99.90;;;;;;5039157;28;812;-50
2021/10/09 17:28:49;;;;;;;;;;;17.40;99.90;;;;;;5039486;28;768;-50